Time;durP1;ratioP1;P1;durP2;ratioP2;P2;SDS_P1;SDS_P2;PMS_P1;PMS_P2;Temp;Humidity;BMP_temperature;BMP_pressure;BME280_temperature;BME280_humidity;BME280_pressure;Samples;Min_cycle;Max_cycle;Signal;HPM_P1;HPM_P2
2022/10/16 00:57:58;;;;;;;3.15;2.80;;;;;;;;;;6158709;23;20032;-92
2022/10/16 01:00:42;;;;;;;3.53;3.17;;;;;;;;;;6105910;23;20017;-93
2022/10/16 02:34:30;;;;;;;4.40;2.20;;;;;;;;;;6201050;23;20032;-83
2022/10/16 02:37:17;;;;;;;74.00;22.92;;;;;;;;;;6157883;23;20013;-82
2022/10/16 07:58:54;;;;;;;;;;;;;;;;;;;;;
2022/10/16 08:09:20;;;;;;;4.45;3.17;;;;;;;;;;6171765;23;20464;-86
2022/10/16 08:50:52;;;;;;;;;;;;;;;;;;;;;
2022/10/16 08:56:06;;;;;;;;;;;;;;;;;;;;;
2022/10/16 09:03:43;;;;;;;1.90;1.75;;;;;;;;;;6156223;23;20025;-85
2022/10/16 09:07:57;;;;;;;3.38;1.58;;;;;;;;;;5975315;23;20024;-86
2022/10/16 09:18:57;;;;;;;3.97;1.58;;;;;;;;;;5949389;24;20040;-85
2022/10/16 09:22:10;;;;;;;5.43;1.92;;;;;;;;;;5937880;23;20027;-86
2022/10/16 09:25:13;;;;;;;2.38;1.80;;;;;;;;;;5970553;23;20034;-86
2022/10/16 09:32:21;;;;;;;1.95;1.83;;;;;;;;;;5961597;24;20480;-85
2022/10/16 09:36:26;;;;;;;;;;;;;;;;;;;;;
2022/10/16 10:18:50;;;;;;;1.92;1.75;;;;;;;;;;5955968;24;20072;-85
2022/10/16 10:44:59;;;;;;;1.25;1.15;;;;;;;;;;6113756;23;20034;-86
2022/10/16 11:18:31;;;;;;;;;;;;;;;;;;;;;
2022/10/16 11:23:10;;;;;;;;;;;;;;;;;;;;;
2022/10/16 11:40:44;;;;;;;1.50;1.23;;;;;;;;;;5948522;23;20020;-86
2022/10/16 11:48:19;;;;;;;1.85;1.65;;;;;;;;;;6014806;23;19913;-81
2022/10/16 11:50:50;;;;;;;1.85;1.48;;;;;;;;;;6046258;23;20465;-81
2022/10/16 11:53:24;;;;;;;2.05;1.45;;;;;;;;;;6046789;23;20022;-84
2022/10/16 11:55:52;;;;;;;1.35;1.20;;;;;;;;;;6071059;23;20442;-80
2022/10/16 11:58:26;;;;;;;2.88;1.75;;;;;;;;;;6074970;23;20030;-80
2022/10/16 12:00:59;;;;;;;1.35;1.25;;;;;;;;;;6079955;23;20022;-81
2022/10/16 12:03:34;;;;;;;1.88;1.50;;;;;;;;;;6095887;23;20026;-78
2022/10/16 12:06:21;;;;;;;2.42;1.88;;;;;;;;;;6092615;23;20018;-78
2022/10/16 12:08:49;;;;;;;1.73;1.45;;;;;;;;;;6096123;23;20455;-80
2022/10/16 12:11:23;;;;;;;2.00;1.80;;;;;;;;;;6097479;23;20034;-81
2022/10/16 12:13:51;;;;;;;4.72;1.98;;;;;;;;;;6103920;23;20019;-79
2022/10/16 12:16:23;;;;;;;4.15;2.17;;;;;;;;;;6103778;23;20038;-81
2022/10/16 12:19:03;;;;;;;1.85;1.20;;;;;;;;;;6149781;23;20029;-82
2022/10/16 12:21:31;;;;;;;1.53;1.43;;;;;;;;;;6165122;23;20307;-80
2022/10/16 12:24:01;;;;;;;3.15;1.35;;;;;;;;;;6156200;23;20256;-80
2022/10/16 12:26:39;;;;;;;1.38;1.20;;;;;;;;;;6162948;23;20013;-82
2022/10/16 12:34:29;;;;;;;2.28;1.77;;;;;;;;;;6154864;23;20327;-85
2022/10/16 12:37:23;;;;;;;1.23;1.00;;;;;;;;;;6074450;23;20025;-86
2022/10/16 12:39:56;;;;;;;1.77;1.20;;;;;;;;;;6104743;23;20457;-86
2022/10/16 12:42:43;;;;;;;1.40;1.30;;;;;;;;;;6137571;23;20029;-86
2022/10/16 12:49:38;;;;;;;8.82;1.50;;;;;;;;;;6117407;23;20464;-85
2022/10/16 12:52:50;;;;;;;4.82;1.50;;;;;;;;;;6081975;23;20032;-86
2022/10/16 12:55:22;;;;;;;1.63;1.52;;;;;;;;;;6049707;23;20072;-85
2022/10/16 13:01:59;;;;;;;5.18;1.95;;;;;;;;;;6105389;23;20022;-86
2022/10/16 13:04:48;;;;;;;1.88;1.75;;;;;;;;;;6093359;23;20026;-87
2022/10/16 13:07:56;;;;;;;1.88;1.45;;;;;;;;;;6074254;23;20026;-87
2022/10/16 13:10:53;;;;;;;3.60;1.75;;;;;;;;;;6084728;23;20022;-86
2022/10/16 13:13:31;;;;;;;1.23;1.13;;;;;;;;;;6053102;23;20158;-86
2022/10/16 13:16:02;;;;;;;4.30;1.30;;;;;;;;;;6074083;23;20030;-86
2022/10/16 13:18:57;;;;;;;3.38;1.40;;;;;;;;;;6074121;23;20025;-86
2022/10/16 13:21:52;;;;;;;1.65;1.50;;;;;;;;;;6075707;23;20126;-87
2022/10/16 13:24:25;;;;;;;2.15;1.50;;;;;;;;;;6074387;23;20131;-83
2022/10/16 13:26:58;;;;;;;1.98;1.67;;;;;;;;;;6127911;23;20106;-85
2022/10/16 13:30:13;;;;;;;1.00;0.95;;;;;;;;;;6075354;23;20025;-85
2022/10/16 13:33:05;;;;;;;1.83;1.73;;;;;;;;;;6064007;23;20029;-84
2022/10/16 13:36:09;;;;;;;1.45;1.27;;;;;;;;;;6096762;23;20445;-84
2022/10/16 13:38:44;;;;;;;3.80;1.38;;;;;;;;;;6107254;23;20071;-85
2022/10/16 13:41:20;;;;;;;2.53;1.30;;;;;;;;;;6140388;23;20024;-85
2022/10/16 13:44:03;;;;;;;4.20;1.13;;;;;;;;;;6132044;23;20037;-85
2022/10/16 13:46:47;;;;;;;2.30;2.10;;;;;;;;;;6121781;23;20030;-84
2022/10/16 13:49:20;;;;;;;2.10;1.42;;;;;;;;;;6165865;23;20014;-86
2022/10/16 13:51:57;;;;;;;4.53;1.55;;;;;;;;;;6091892;23;20048;-85
2022/10/16 13:54:32;;;;;;;3.38;1.60;;;;;;;;;;6139286;23;20029;-85
2022/10/16 13:57:07;;;;;;;5.18;1.38;;;;;;;;;;6084077;23;20338;-85
2022/10/16 13:59:57;;;;;;;0.90;0.90;;;;;;;;;;6103187;23;20044;-85
2022/10/16 14:02:34;;;;;;;1.67;1.23;;;;;;;;;;6122906;23;20021;-85
2022/10/16 14:05:10;;;;;;;4.43;1.58;;;;;;;;;;6108515;23;20014;-85
2022/10/16 14:07:50;;;;;;;1.33;1.00;;;;;;;;;;6108250;23;20032;-86
2022/10/16 14:10:32;;;;;;;1.60;1.50;;;;;;;;;;6069786;23;20028;-86
2022/10/16 14:13:07;;;;;;;2.08;1.90;;;;;;;;;;6139831;23;20429;-86
2022/10/16 14:15:40;;;;;;;1.30;0.85;;;;;;;;;;6090742;23;20026;-86
2022/10/16 14:18:17;;;;;;;4.55;1.25;;;;;;;;;;6128683;23;20017;-86
2022/10/16 14:20:51;;;;;;;0.93;0.93;;;;;;;;;;6102398;23;20025;-87
2022/10/16 14:23:26;;;;;;;1.38;1.27;;;;;;;;;;6135201;23;20468;-86
2022/10/16 14:25:57;;;;;;;1.48;1.38;;;;;;;;;;6149892;23;20017;-85
2022/10/16 14:28:24;;;;;;;;;;;;;;;;;;6154033;23;20022;-86
2022/10/16 14:30:56;;;;;;;1.15;0.90;;;;;;;;;;6159810;23;19923;-87
2022/10/16 14:33:34;;;;;;;0.60;0.60;;;;;;;;;;6165485;23;20440;-85
2022/10/16 14:36:10;;;;;;;1.20;1.10;;;;;;;;;;6136721;23;20026;-86
2022/10/16 14:39:09;;;;;;;2.15;1.52;;;;;;;;;;6123528;23;20346;-86
2022/10/16 14:41:50;;;;;;;1.90;1.65;;;;;;;;;;6090882;23;20017;-86
2022/10/16 14:44:19;;;;;;;0.93;0.93;;;;;;;;;;6121740;23;20322;-86
2022/10/16 14:46:47;;;;;;;1.50;1.33;;;;;;;;;;6130765;23;20339;-86
2022/10/16 14:49:18;;;;;;;3.25;1.25;;;;;;;;;;6135598;23;20018;-87
2022/10/16 14:51:46;;;;;;;1.50;1.40;;;;;;;;;;6100990;23;20026;-86
2022/10/16 14:54:15;;;;;;;17.35;1.60;;;;;;;;;;6123644;23;20029;-86
2022/10/16 14:56:51;;;;;;;1.70;1.50;;;;;;;;;;6135688;23;20014;-86
2022/10/16 14:59:28;;;;;;;1.65;1.30;;;;;;;;;;6129286;23;20022;-86
2022/10/16 15:02:02;;;;;;;1.55;1.45;;;;;;;;;;6134519;23;20013;-85
2022/10/16 15:04:30;;;;;;;3.63;1.90;;;;;;;;;;6135883;23;20018;-85
2022/10/16 15:06:58;;;;;;;1.35;1.08;;;;;;;;;;6074810;23;20033;-85
2022/10/16 15:09:28;;;;;;;1.10;1.00;;;;;;;;;;6109705;23;20014;-85
2022/10/16 15:12:05;;;;;;;1.40;0.98;;;;;;;;;;6126223;23;20031;-84
2022/10/16 15:14:34;;;;;;;2.28;1.80;;;;;;;;;;6110169;23;20022;-84
2022/10/16 15:17:21;;;;;;;7.03;1.25;;;;;;;;;;6098848;23;20028;-85
2022/10/16 15:19:51;;;;;;;2.47;2.15;;;;;;;;;;6142633;23;20022;-85
2022/10/16 15:22:31;;;;;;;1.75;1.42;;;;;;;;;;6135472;23;20018;-85
2022/10/16 15:25:31;;;;;;;8.85;2.63;;;;;;;;;;6141639;23;20358;-84
2022/10/16 15:28:04;;;;;;;1.88;1.65;;;;;;;;;;6130800;23;20461;-85
2022/10/16 15:30:44;;;;;;;1.38;1.27;;;;;;;;;;6099120;23;20022;-85
2022/10/16 15:33:15;;;;;;;3.97;3.67;;;;;;;;;;6135558;23;20021;-85
2022/10/16 15:35:43;;;;;;;3.33;3.03;;;;;;;;;;6125428;23;20021;-85
2022/10/16 15:38:14;;;;;;;4.40;2.60;;;;;;;;;;6098833;23;20702;-84
2022/10/16 15:40:42;;;;;;;2.13;1.08;;;;;;;;;;6100224;23;20014;-85
2022/10/16 15:43:11;;;;;;;10.32;3.60;;;;;;;;;;6105188;23;20026;-84
2022/10/16 15:45:40;;;;;;;52.85;18.50;;;;;;;;;;6136039;23;20014;-84
2022/10/16 15:48:24;;;;;;;13.85;4.93;;;;;;;;;;6076992;23;20022;-85
2022/10/16 15:51:00;;;;;;;7.95;4.00;;;;;;;;;;6112579;23;20029;-81
2022/10/16 15:53:29;;;;;;;34.88;13.60;;;;;;;;;;6077200;23;20022;-90
2022/10/16 15:55:57;;;;;;;35.40;13.70;;;;;;;;;;6100099;23;20029;-81
2022/10/16 15:58:32;;;;;;;28.88;9.00;;;;;;;;;;6131011;23;20018;-76
2022/10/16 16:01:01;;;;;;;21.80;10.30;;;;;;;;;;6133719;23;20611;-80
2022/10/16 16:03:29;;;;;;;30.98;10.23;;;;;;;;;;6127189;23;20338;-76
2022/10/16 16:05:57;;;;;;;29.05;8.57;;;;;;;;;;6132918;23;20513;-77
2022/10/16 16:08:25;;;;;;;13.40;4.65;;;;;;;;;;6131300;23;20018;-77
2022/10/16 16:11:03;;;;;;;13.52;7.38;;;;;;;;;;6128746;23;20037;-81
2022/10/16 16:13:31;;;;;;;2.78;1.25;;;;;;;;;;6134723;23;20013;-77
2022/10/16 16:26:04;;;;;;;1.65;1.55;;;;;;;;;;6139970;23;20021;-88
2022/10/16 16:29:06;;;;;;;5.85;1.98;;;;;;;;;;6141738;23;20029;-87
2022/10/16 16:32:46;;;;;;;3.75;1.90;;;;;;;;;;6037210;23;20029;-88
2022/10/16 16:42:07;;;;;;;6.85;1.95;;;;;;;;;;6066994;23;20414;-83
2022/10/16 16:44:38;;;;;;;6.22;2.58;;;;;;;;;;6079526;23;20026;-81
2022/10/16 16:47:06;;;;;;;4.55;1.77;;;;;;;;;;6091605;23;20031;-82
2022/10/16 16:49:34;;;;;;;3.22;1.77;;;;;;;;;;6132479;23;20013;-82
2022/10/16 16:52:02;;;;;;;1.67;1.33;;;;;;;;;;6155602;23;20028;-85
2022/10/16 16:54:29;;;;;;;2.60;1.27;;;;;;;;;;6162514;23;20025;-83
2022/10/16 16:56:57;;;;;;;4.60;1.73;;;;;;;;;;6163872;23;20010;-84
2022/10/16 16:59:25;;;;;;;1.95;1.33;;;;;;;;;;6158668;23;20021;-84
2022/10/16 17:01:56;;;;;;;2.10;1.58;;;;;;;;;;6139073;23;20337;-84
2022/10/16 18:16:51;;;;;;;5.22;1.95;;;;;;;;;;6162442;23;20021;-92
2022/10/16 18:31:30;;;;;;;;;;;;;;;;;;;;;
